sensor_id;sensor_type;location;lat;lon;timestamp;pressure;altitude;pressure_sealevel;temperature;humidity
75627;BME280;67372;49.404;11.034;2023-04-24T00:00:50;97137.41;;;11.04;80.69
75627;BME280;67372;49.404;11.034;2023-04-24T00:03:17;97139.28;;;11.03;80.93
75627;BME280;67372;49.404;11.034;2023-04-24T00:05:43;97136.28;;;11.00;80.56
75627;BME280;67372;49.404;11.034;2023-04-24T00:08:10;97137.59;;;10.97;80.66
75627;BME280;67372;49.404;11.034;2023-04-24T00:10:36;97129.84;;;10.96;81.57
75627;BME280;67372;49.404;11.034;2023-04-24T00:13:02;97130.06;;;10.94;81.64
75627;BME280;67372;49.404;11.034;2023-04-24T00:15:29;97132.44;;;10.91;81.73
75627;BME280;67372;49.404;11.034;2023-04-24T00:17:55;97138.81;;;10.90;81.15
75627;BME280;67372;49.404;11.034;2023-04-24T00:20:21;97135.34;;;10.89;81.24
75627;BME280;67372;49.404;11.034;2023-04-24T00:22:48;97132.91;;;10.88;81.57
75627;BME280;67372;49.404;11.034;2023-04-24T00:25:14;97136.16;;;10.90;81.12
75627;BME280;67372;49.404;11.034;2023-04-24T00:27:40;97146.25;;;10.88;81.61
75627;BME280;67372;49.404;11.034;2023-04-24T00:30:07;97139.53;;;10.85;82.63
75627;BME280;67372;49.404;11.034;2023-04-24T00:32:34;97137.34;;;10.82;82.46
75627;BME280;67372;49.404;11.034;2023-04-24T00:35:00;97130.09;;;10.77;82.91
75627;BME280;67372;49.404;11.034;2023-04-24T00:37:26;97126.53;;;10.72;82.35
75627;BME280;67372;49.404;11.034;2023-04-24T00:39:53;97131.25;;;10.65;82.88
75627;BME280;67372;49.404;11.034;2023-04-24T00:42:20;97126.94;;;10.64;83.03
75627;BME280;67372;49.404;11.034;2023-04-24T00:44:47;97124.50;;;10.62;82.27
75627;BME280;67372;49.404;11.034;2023-04-24T00:47:13;97127.41;;;10.61;81.58
75627;BME280;67372;49.404;11.034;2023-04-24T00:49:40;97109.56;;;10.61;81.98
75627;BME280;67372;49.404;11.034;2023-04-24T00:52:06;97117.31;;;10.63;81.59
75627;BME280;67372;49.404;11.034;2023-04-24T00:54:33;97114.09;;;10.61;81.90
75627;BME280;67372;49.404;11.034;2023-04-24T00:56:59;97124.75;;;10.61;81.92
75627;BME280;67372;49.404;11.034;2023-04-24T00:59:26;97120.47;;;10.60;81.44
75627;BME280;67372;49.404;11.034;2023-04-24T01:01:52;97121.03;;;10.62;81.41
75627;BME280;67372;49.404;11.034;2023-04-24T01:04:19;97128.78;;;10.63;82.06
75627;BME280;67372;49.404;11.034;2023-04-24T01:06:46;97128.56;;;10.65;81.32
75627;BME280;67372;49.404;11.034;2023-04-24T01:09:13;97125.41;;;10.68;81.28
75627;BME280;67372;49.404;11.034;2023-04-24T01:11:40;97123.06;;;10.71;80.85
75627;BME280;67372;49.404;11.034;2023-04-24T01:14:07;97113.53;;;10.75;80.82
75627;BME280;67372;49.404;11.034;2023-04-24T01:16:33;97122.34;;;10.76;80.92
75627;BME280;67372;49.404;11.034;2023-04-24T01:19:00;97121.22;;;10.72;82.04
75627;BME280;67372;49.404;11.034;2023-04-24T01:21:26;97116.63;;;10.67;81.75
75627;BME280;67372;49.404;11.034;2023-04-24T01:23:53;97117.81;;;10.60;82.45
75627;BME280;67372;49.404;11.034;2023-04-24T01:26:20;97126.06;;;10.58;81.31
75627;BME280;67372;49.404;11.034;2023-04-24T01:28:47;97128.41;;;10.55;82.03
75627;BME280;67372;49.404;11.034;2023-04-24T01:31:15;97127.59;;;10.54;81.88
75627;BME280;67372;49.404;11.034;2023-04-24T01:33:42;97127.34;;;10.56;81.00
75627;BME280;67372;49.404;11.034;2023-04-24T01:36:10;97128.97;;;10.57;81.26
75627;BME280;67372;49.404;11.034;2023-04-24T01:38:37;97122.00;;;10.56;81.73
75627;BME280;67372;49.404;11.034;2023-04-24T01:41:04;97123.88;;;10.55;81.46
75627;BME280;67372;49.404;11.034;2023-04-24T01:43:30;97127.66;;;10.59;81.55
75627;BME280;67372;49.404;11.034;2023-04-24T01:45:57;97126.63;;;10.60;80.94
75627;BME280;67372;49.404;11.034;2023-04-24T01:48:24;97132.84;;;10.66;81.04
75627;BME280;67372;49.404;11.034;2023-04-24T01:50:51;97125.97;;;10.70;80.90
75627;BME280;67372;49.404;11.034;2023-04-24T01:53:17;97124.44;;;10.74;80.40
75627;BME280;67372;49.404;11.034;2023-04-24T01:55:43;97117.81;;;10.76;80.67
75627;BME280;67372;49.404;11.034;2023-04-24T01:58:10;97117.56;;;10.78;80.71
75627;BME280;67372;49.404;11.034;2023-04-24T02:00:36;97111.41;;;10.77;80.18
75627;BME280;67372;49.404;11.034;2023-04-24T02:03:03;97104.53;;;10.82;80.34
75627;BME280;67372;49.404;11.034;2023-04-24T02:05:29;97106.41;;;10.81;79.61
75627;BME280;67372;49.404;11.034;2023-04-24T02:07:56;97102.13;;;10.80;80.04
75627;BME280;67372;49.404;11.034;2023-04-24T02:10:22;97091.94;;;10.77;80.10
75627;BME280;67372;49.404;11.034;2023-04-24T02:12:49;97091.06;;;10.71;80.59
75627;BME280;67372;49.404;11.034;2023-04-24T02:15:15;97089.94;;;10.67;80.41
75627;BME280;67372;49.404;11.034;2023-04-24T02:17:41;97090.19;;;10.66;79.92
75627;BME280;67372;49.404;11.034;2023-04-24T02:20:08;97093.56;;;10.61;80.12
75627;BME280;67372;49.404;11.034;2023-04-24T02:22:34;97092.19;;;10.59;79.53
75627;BME280;67372;49.404;11.034;2023-04-24T02:25:00;97088.97;;;10.57;80.01
75627;BME280;67372;49.404;11.034;2023-04-24T02:27:27;97083.06;;;10.55;79.85
75627;BME280;67372;49.404;11.034;2023-04-24T02:29:53;97088.66;;;10.53;79.63
75627;BME280;67372;49.404;11.034;2023-04-24T02:32:19;97082.25;;;10.54;79.33
75627;BME280;67372;49.404;11.034;2023-04-24T02:34:46;97088.41;;;10.55;79.89
75627;BME280;67372;49.404;11.034;2023-04-24T02:37:12;97085.72;;;10.55;80.40
75627;BME280;67372;49.404;11.034;2023-04-24T02:39:38;97087.59;;;10.54;80.60
75627;BME280;67372;49.404;11.034;2023-04-24T02:42:04;97086.78;;;10.54;79.11
75627;BME280;67372;49.404;11.034;2023-04-24T02:44:31;97086.28;;;10.57;79.13
75627;BME280;67372;49.404;11.034;2023-04-24T02:46:57;97084.19;;;10.59;79.22
75627;BME280;67372;49.404;11.034;2023-04-24T02:49:23;97083.13;;;10.60;78.94
75627;BME280;67372;49.404;11.034;2023-04-24T02:51:50;97074.09;;;10.61;79.28
75627;BME280;67372;49.404;11.034;2023-04-24T02:54:16;97084.50;;;10.62;78.81
75627;BME280;67372;49.404;11.034;2023-04-24T02:56:42;97079.41;;;10.61;79.72
75627;BME280;67372;49.404;11.034;2023-04-24T02:59:09;97076.75;;;10.61;79.07
75627;BME280;67372;49.404;11.034;2023-04-24T03:01:35;97091.38;;;10.58;79.52
75627;BME280;67372;49.404;11.034;2023-04-24T03:04:02;97087.34;;;10.56;79.90
75627;BME280;67372;49.404;11.034;2023-04-24T03:06:28;97077.50;;;10.56;79.27
75627;BME280;67372;49.404;11.034;2023-04-24T03:08:55;97075.06;;;10.55;80.15
75627;BME280;67372;49.404;11.034;2023-04-24T03:11:21;97076.63;;;10.51;80.29
75627;BME280;67372;49.404;11.034;2023-04-24T03:13:47;97075.81;;;10.50;79.66
75627;BME280;67372;49.404;11.034;2023-04-24T03:16:14;97069.91;;;10.48;80.23
75627;BME280;67372;49.404;11.034;2023-04-24T03:18:40;97068.84;;;10.49;80.53
75627;BME280;67372;49.404;11.034;2023-04-24T03:21:06;97068.28;;;10.47;80.06
75627;BME280;67372;49.404;11.034;2023-04-24T03:23:33;97075.72;;;10.45;80.41
75627;BME280;67372;49.404;11.034;2023-04-24T03:25:59;97075.41;;;10.41;80.70
75627;BME280;67372;49.404;11.034;2023-04-24T03:28:26;97076.44;;;10.40;80.70
75627;BME280;67372;49.404;11.034;2023-04-24T03:30:52;97080.41;;;10.38;81.07
75627;BME280;67372;49.404;11.034;2023-04-24T03:33:18;97075.00;;;10.33;81.07
75627;BME280;67372;49.404;11.034;2023-04-24T03:35:45;97070.16;;;10.30;80.96
75627;BME280;67372;49.404;11.034;2023-04-24T03:38:11;97079.75;;;10.31;81.17
75627;BME280;67372;49.404;11.034;2023-04-24T03:40:37;97072.75;;;10.25;80.63
75627;BME280;67372;49.404;11.034;2023-04-24T03:43:03;97072.88;;;10.18;82.29
75627;BME280;67372;49.404;11.034;2023-04-24T03:45:30;97066.63;;;10.12;81.73
75627;BME280;67372;49.404;11.034;2023-04-24T03:47:56;97075.91;;;10.10;81.78
75627;BME280;67372;49.404;11.034;2023-04-24T03:50:22;97080.69;;;10.08;83.01
75627;BME280;67372;49.404;11.034;2023-04-24T03:52:49;97084.41;;;10.07;81.56
75627;BME280;67372;49.404;11.034;2023-04-24T03:55:15;97087.53;;;10.04;81.99
75627;BME280;67372;49.404;11.034;2023-04-24T03:57:41;97082.94;;;9.99;82.88
75627;BME280;67372;49.404;11.034;2023-04-24T04:00:08;97088.41;;;9.93;82.80
75627;BME280;67372;49.404;11.034;2023-04-24T04:02:35;97090.50;;;9.91;83.54
75627;BME280;67372;49.404;11.034;2023-04-24T04:05:01;97084.03;;;9.87;82.28
75627;BME280;67372;49.404;11.034;2023-04-24T04:07:28;97090.66;;;9.84;83.66
75627;BME280;67372;49.404;11.034;2023-04-24T04:09:54;97083.38;;;9.79;83.91
75627;BME280;67372;49.404;11.034;2023-04-24T04:12:21;97090.81;;;9.77;85.15
75627;BME280;67372;49.404;11.034;2023-04-24T04:14:47;97081.69;;;9.73;84.23
75627;BME280;67372;49.404;11.034;2023-04-24T04:17:14;97083.78;;;9.71;84.50
75627;BME280;67372;49.404;11.034;2023-04-24T04:19:40;97084.81;;;9.70;84.53
75627;BME280;67372;49.404;11.034;2023-04-24T04:22:06;97079.94;;;9.67;83.73
75627;BME280;67372;49.404;11.034;2023-04-24T04:24:33;97084.47;;;9.67;84.00
75627;BME280;67372;49.404;11.034;2023-04-24T04:26:59;97091.66;;;9.66;84.75
75627;BME280;67372;49.404;11.034;2023-04-24T04:29:26;97084.47;;;9.67;84.76
75627;BME280;67372;49.404;11.034;2023-04-24T04:31:52;97091.66;;;9.66;84.90
75627;BME280;67372;49.404;11.034;2023-04-24T04:34:19;97086.31;;;9.66;85.18
75627;BME280;67372;49.404;11.034;2023-04-24T04:36:45;97086.88;;;9.68;84.63
75627;BME280;67372;49.404;11.034;2023-04-24T04:39:12;97090.03;;;9.65;86.20
75627;BME280;67372;49.404;11.034;2023-04-24T04:41:38;97084.94;;;9.64;86.02
75627;BME280;67372;49.404;11.034;2023-04-24T04:44:04;97087.13;;;9.67;85.13
75627;BME280;67372;49.404;11.034;2023-04-24T04:46:31;97087.50;;;9.70;84.16
75627;BME280;67372;49.404;11.034;2023-04-24T04:49:00;97078.44;;;9.71;85.02
75627;BME280;67372;49.404;11.034;2023-04-24T04:51:27;97087.81;;;9.74;84.91
75627;BME280;67372;49.404;11.034;2023-04-24T04:53:53;97085.41;;;9.72;86.18
75627;BME280;67372;49.404;11.034;2023-04-24T04:56:19;97073.69;;;9.73;85.80
75627;BME280;67372;49.404;11.034;2023-04-24T04:58:46;97091.53;;;9.73;86.11
75627;BME280;67372;49.404;11.034;2023-04-24T05:01:12;97096.13;;;9.77;85.23
75627;BME280;67372;49.404;11.034;2023-04-24T05:03:38;97100.50;;;9.83;84.74
75627;BME280;67372;49.404;11.034;2023-04-24T05:06:05;97095.81;;;9.91;84.65
75627;BME280;67372;49.404;11.034;2023-04-24T05:08:32;97097.00;;;9.95;83.63
75627;BME280;67372;49.404;11.034;2023-04-24T05:10:58;97099.16;;;9.98;84.43
75627;BME280;67372;49.404;11.034;2023-04-24T05:13:24;97105.38;;;10.03;83.73
75627;BME280;67372;49.404;11.034;2023-04-24T05:16:04;97104.91;;;10.06;84.67
75627;BME280;67372;49.404;11.034;2023-04-24T05:18:31;97104.19;;;10.11;83.74
75627;BME280;67372;49.404;11.034;2023-04-24T05:20:57;97113.88;;;10.17;84.18
75627;BME280;67372;49.404;11.034;2023-04-24T05:23:23;97116.44;;;10.24;83.32
75627;BME280;67372;49.404;11.034;2023-04-24T05:25:50;97124.59;;;10.34;83.45
75627;BME280;67372;49.404;11.034;2023-04-24T05:28:16;97120.75;;;10.41;82.56
75627;BME280;67372;49.404;11.034;2023-04-24T05:30:43;97118.72;;;10.49;83.27
75627;BME280;67372;49.404;11.034;2023-04-24T05:33:09;97120.41;;;10.55;82.33
75627;BME280;67372;49.404;11.034;2023-04-24T05:35:36;97126.13;;;10.63;83.14
75627;BME280;67372;49.404;11.034;2023-04-24T05:38:02;97136.78;;;10.63;83.58
75627;BME280;67372;49.404;11.034;2023-04-24T05:40:28;97132.13;;;10.70;82.38
75627;BME280;67372;49.404;11.034;2023-04-24T05:42:55;97128.97;;;10.73;82.57
75627;BME280;67372;49.404;11.034;2023-04-24T05:45:21;97129.84;;;10.79;82.27
75627;BME280;67372;49.404;11.034;2023-04-24T05:47:47;97130.22;;;10.88;82.00
75627;BME280;67372;49.404;11.034;2023-04-24T05:50:14;97130.16;;;10.99;82.51
75627;BME280;67372;49.404;11.034;2023-04-24T05:52:40;97136.91;;;11.07;82.26
75627;BME280;67372;49.404;11.034;2023-04-24T05:55:07;97134.97;;;11.19;82.05
75627;BME280;67372;49.404;11.034;2023-04-24T05:57:33;97144.66;;;11.25;81.18
75627;BME280;67372;49.404;11.034;2023-04-24T06:00:00;97147.94;;;11.32;81.58
75627;BME280;67372;49.404;11.034;2023-04-24T06:02:26;97150.00;;;11.47;81.35
75627;BME280;67372;49.404;11.034;2023-04-24T06:04:52;97142.50;;;11.66;80.32
75627;BME280;67372;49.404;11.034;2023-04-24T06:07:19;97131.84;;;11.88;80.17
75627;BME280;67372;49.404;11.034;2023-04-24T06:09:45;97135.19;;;12.05;79.60
75627;BME280;67372;49.404;11.034;2023-04-24T06:12:12;97140.97;;;12.19;78.97
75627;BME280;67372;49.404;11.034;2023-04-24T06:14:38;97144.59;;;12.35;78.64
75627;BME280;67372;49.404;11.034;2023-04-24T06:17:04;97132.06;;;12.40;78.11
75627;BME280;67372;49.404;11.034;2023-04-24T06:19:30;97146.81;;;12.43;77.67
75627;BME280;67372;49.404;11.034;2023-04-24T06:21:57;97140.91;;;12.41;77.51
75627;BME280;67372;49.404;11.034;2023-04-24T06:24:27;97148.38;;;12.39;77.46
75627;BME280;67372;49.404;11.034;2023-04-24T06:26:53;97150.47;;;12.32;77.58
75627;BME280;67372;49.404;11.034;2023-04-24T06:29:20;97157.91;;;12.29;77.26
75627;BME280;67372;49.404;11.034;2023-04-24T06:31:46;97155.81;;;12.32;77.89
75627;BME280;67372;49.404;11.034;2023-04-24T06:34:12;97157.41;;;12.33;78.10
75627;BME280;67372;49.404;11.034;2023-04-24T06:36:39;97166.38;;;12.21;74.79
75627;BME280;67372;49.404;11.034;2023-04-24T06:39:05;97173.25;;;12.12;74.79
75627;BME280;67372;49.404;11.034;2023-04-24T06:41:31;97171.75;;;11.99;74.22
75627;BME280;67372;49.404;11.034;2023-04-24T06:43:58;97171.16;;;11.92;73.61
75627;BME280;67372;49.404;11.034;2023-04-24T06:46:24;97178.06;;;11.88;74.48
75627;BME280;67372;49.404;11.034;2023-04-24T06:48:51;97182.50;;;12.05;73.31
75627;BME280;67372;49.404;11.034;2023-04-24T06:51:18;97182.47;;;11.99;73.60
75627;BME280;67372;49.404;11.034;2023-04-24T06:53:44;97173.94;;;12.03;72.69
75627;BME280;67372;49.404;11.034;2023-04-24T06:56:13;97173.94;;;12.03;73.12
75627;BME280;67372;49.404;11.034;2023-04-24T06:58:39;97185.81;;;12.12;72.04
75627;BME280;67372;49.404;11.034;2023-04-24T07:01:05;97185.19;;;12.05;71.80
75627;BME280;67372;49.404;11.034;2023-04-24T07:03:32;97194.97;;;11.94;72.85
75627;BME280;67372;49.404;11.034;2023-04-24T07:05:59;97197.63;;;11.94;71.29
75627;BME280;67372;49.404;11.034;2023-04-24T07:08:25;97195.16;;;12.09;69.87
75627;BME280;67372;49.404;11.034;2023-04-24T07:10:51;97190.16;;;12.18;70.50
75627;BME280;67372;49.404;11.034;2023-04-24T07:13:18;97197.44;;;12.27;70.32
75627;BME280;67372;49.404;11.034;2023-04-24T07:15:44;97197.16;;;12.51;67.69
75627;BME280;67372;49.404;11.034;2023-04-24T07:18:10;97207.94;;;12.56;68.28
75627;BME280;67372;49.404;11.034;2023-04-24T07:20:37;97202.25;;;12.52;67.00
75627;BME280;67372;49.404;11.034;2023-04-24T07:23:03;97207.50;;;12.69;65.83
75627;BME280;67372;49.404;11.034;2023-04-24T07:25:30;97204.34;;;12.77;64.06
75627;BME280;67372;49.404;11.034;2023-04-24T07:27:56;97218.66;;;12.61;63.29
75627;BME280;67372;49.404;11.034;2023-04-24T07:30:23;97216.22;;;12.54;62.15
75627;BME280;67372;49.404;11.034;2023-04-24T07:32:49;97223.81;;;12.68;63.14
75627;BME280;67372;49.404;11.034;2023-04-24T07:35:16;97216.28;;;12.65;61.98
75627;BME280;67372;49.404;11.034;2023-04-24T07:37:42;97219.56;;;12.45;61.83
75627;BME280;67372;49.404;11.034;2023-04-24T07:40:09;97223.25;;;12.39;61.22
75627;BME280;67372;49.404;11.034;2023-04-24T07:42:36;97242.75;;;12.34;61.76
75627;BME280;67372;49.404;11.034;2023-04-24T07:45:02;97236.34;;;12.35;62.20
75627;BME280;67372;49.404;11.034;2023-04-24T07:47:29;97241.44;;;12.37;61.80
75627;BME280;67372;49.404;11.034;2023-04-24T07:49:55;97233.78;;;12.23;61.83
75627;BME280;67372;49.404;11.034;2023-04-24T07:52:22;97242.09;;;12.27;61.35
75627;BME280;67372;49.404;11.034;2023-04-24T07:54:48;97244.88;;;12.32;62.68
75627;BME280;67372;49.404;11.034;2023-04-24T07:57:14;97236.34;;;12.35;62.30
75627;BME280;67372;49.404;11.034;2023-04-24T07:59:41;97233.75;;;12.45;61.26
75627;BME280;67372;49.404;11.034;2023-04-24T08:02:08;97240.75;;;12.51;59.95
75627;BME280;67372;49.404;11.034;2023-04-24T08:04:34;97237.19;;;12.68;58.57
75627;BME280;67372;49.404;11.034;2023-04-24T08:07:01;97235.91;;;12.75;57.00
75627;BME280;67372;49.404;11.034;2023-04-24T08:09:27;97245.53;;;12.76;58.34
75627;BME280;67372;49.404;11.034;2023-04-24T08:11:54;97241.78;;;12.72;58.66
75627;BME280;67372;49.404;11.034;2023-04-24T08:14:20;97239.81;;;12.63;58.95
75627;BME280;67372;49.404;11.034;2023-04-24T08:16:46;97243.91;;;12.70;58.05
75627;BME280;67372;49.404;11.034;2023-04-24T08:19:13;97243.13;;;12.75;58.01
75627;BME280;67372;49.404;11.034;2023-04-24T08:21:39;97266.00;;;12.87;57.43
75627;BME280;67372;49.404;11.034;2023-04-24T08:24:05;97257.47;;;12.90;57.22
75627;BME280;67372;49.404;11.034;2023-04-24T08:26:32;97271.88;;;12.84;57.84
75627;BME280;67372;49.404;11.034;2023-04-24T08:28:58;97269.09;;;12.74;56.54
75627;BME280;67372;49.404;11.034;2023-04-24T08:31:24;97271.84;;;12.79;57.57
75627;BME280;67372;49.404;11.034;2023-04-24T08:33:51;97276.94;;;12.81;57.47
75627;BME280;67372;49.404;11.034;2023-04-24T08:36:17;97280.28;;;12.71;58.68
75627;BME280;67372;49.404;11.034;2023-04-24T08:38:43;97275.34;;;12.85;58.41
75627;BME280;67372;49.404;11.034;2023-04-24T08:41:11;97275.72;;;12.99;58.19
75627;BME280;67372;49.404;11.034;2023-04-24T08:43:37;97273.88;;;13.26;57.38
75627;BME280;67372;49.404;11.034;2023-04-24T08:46:04;97269.09;;;13.33;56.84
75627;BME280;67372;49.404;11.034;2023-04-24T08:48:37;97277.03;;;13.55;55.85
75627;BME280;67372;49.404;11.034;2023-04-24T08:51:06;97285.31;;;13.54;55.48
75627;BME280;67372;49.404;11.034;2023-04-24T08:53:34;97273.88;;;13.68;55.25
75627;BME280;67372;49.404;11.034;2023-04-24T08:56:01;97286.69;;;13.61;54.88
75627;BME280;67372;49.404;11.034;2023-04-24T08:58:29;97275.94;;;13.56;55.48
75627;BME280;67372;49.404;11.034;2023-04-24T09:00:57;97279.09;;;13.48;55.51
75627;BME280;67372;49.404;11.034;2023-04-24T09:03:27;97277.84;;;13.61;54.83
75627;BME280;67372;49.404;11.034;2023-04-24T09:05:55;97270.25;;;13.47;54.64
75627;BME280;67372;49.404;11.034;2023-04-24T09:08:24;97274.25;;;13.45;55.08
75627;BME280;67372;49.404;11.034;2023-04-24T09:10:50;97272.88;;;13.37;56.26
75627;BME280;67372;49.404;11.034;2023-04-24T09:13:18;97276.63;;;13.36;56.11
75627;BME280;67372;49.404;11.034;2023-04-24T09:15:45;97268.09;;;13.44;55.05
75627;BME280;67372;49.404;11.034;2023-04-24T09:18:12;97272.91;;;13.42;54.57
75627;BME280;67372;49.404;11.034;2023-04-24T09:21:01;97253.31;;;13.37;54.36
75627;BME280;67372;49.404;11.034;2023-04-24T09:23:31;97256.22;;;13.30;55.09
75627;BME280;67372;49.404;11.034;2023-04-24T09:25:59;97250.94;;;13.45;54.00
75627;BME280;67372;49.404;11.034;2023-04-24T09:28:29;97257.91;;;13.46;54.77
75627;BME280;67372;49.404;11.034;2023-04-24T09:33:30;97253.91;;;13.12;56.57
75627;BME280;67372;49.404;11.034;2023-04-24T09:35:56;97266.09;;;12.98;56.60
75627;BME280;67372;49.404;11.034;2023-04-24T09:38:36;97269.31;;;13.00;56.00
75627;BME280;67372;49.404;11.034;2023-04-24T09:41:05;97270.38;;;12.99;56.37
75627;BME280;67372;49.404;11.034;2023-04-24T09:43:33;97268.75;;;12.98;56.62
75627;BME280;67372;49.404;11.034;2023-04-24T09:46:05;97257.66;;;13.11;56.92
75627;BME280;67372;49.404;11.034;2023-04-24T09:48:34;97252.94;;;13.23;55.67
75627;BME280;67372;49.404;11.034;2023-04-24T09:51:02;97252.78;;;13.40;55.99
75627;BME280;67372;49.404;11.034;2023-04-24T09:53:30;97262.59;;;13.61;52.79
75627;BME280;67372;49.404;11.034;2023-04-24T09:56:02;97263.78;;;13.80;51.81
75627;BME280;67372;49.404;11.034;2023-04-24T09:58:29;97275.00;;;13.72;53.01
75627;BME280;67372;49.404;11.034;2023-04-24T10:00:56;97274.75;;;13.79;54.07
75627;BME280;67372;49.404;11.034;2023-04-24T10:03:26;97278.28;;;13.90;52.70
75627;BME280;67372;49.404;11.034;2023-04-24T10:06:01;97271.03;;;13.90;52.62
75627;BME280;67372;49.404;11.034;2023-04-24T10:08:35;97273.84;;;14.10;50.25
75627;BME280;67372;49.404;11.034;2023-04-24T10:11:02;97274.31;;;13.97;51.20
75627;BME280;67372;49.404;11.034;2023-04-24T10:13:29;97269.13;;;13.75;51.48
75627;BME280;67372;49.404;11.034;2023-04-24T10:15:56;97268.50;;;13.68;50.65
75627;BME280;67372;49.404;11.034;2023-04-24T10:18:26;97272.19;;;13.52;51.79
75627;BME280;67372;49.404;11.034;2023-04-24T10:20:53;97286.00;;;13.39;51.65
75627;BME280;67372;49.404;11.034;2023-04-24T10:23:19;97285.97;;;13.34;50.64
75627;BME280;67372;49.404;11.034;2023-04-24T10:25:46;97285.75;;;13.40;49.36
75627;BME280;67372;49.404;11.034;2023-04-24T10:28:12;97275.88;;;13.46;48.74
75627;BME280;67372;49.404;11.034;2023-04-24T10:30:42;97283.88;;;13.41;49.15
75627;BME280;67372;49.404;11.034;2023-04-24T10:33:09;97284.72;;;13.46;49.30
75627;BME280;67372;49.404;11.034;2023-04-24T10:35:38;97270.91;;;13.65;47.99
75627;BME280;67372;49.404;11.034;2023-04-24T10:38:08;97266.50;;;13.91;46.19
75627;BME280;67372;49.404;11.034;2023-04-24T10:40:35;97271.97;;;14.11;46.68
75627;BME280;67372;49.404;11.034;2023-04-24T10:43:03;97271.22;;;14.31;44.21
75627;BME280;67372;49.404;11.034;2023-04-24T10:45:30;97272.19;;;14.72;43.83
75627;BME280;67372;49.404;11.034;2023-04-24T10:48:02;97277.88;;;14.91;42.52
75627;BME280;67372;49.404;11.034;2023-04-24T10:50:50;97292.91;;;14.92;44.42
75627;BME280;67372;49.404;11.034;2023-04-24T10:53:22;97315.63;;;14.54;49.28
75627;BME280;67372;49.404;11.034;2023-04-24T10:58:23;97335.53;;;13.68;52.75
75627;BME280;67372;49.404;11.034;2023-04-24T11:01:00;97330.97;;;13.32;52.48
75627;BME280;67372;49.404;11.034;2023-04-24T11:03:28;97341.69;;;13.05;53.20
75627;BME280;67372;49.404;11.034;2023-04-24T11:08:29;97344.63;;;13.30;52.67
75627;BME280;67372;49.404;11.034;2023-04-24T11:56:03;97358.53;;;13.27;49.25
75627;BME280;67372;49.404;11.034;2023-04-24T11:58:40;97362.19;;;13.21;49.24
75627;BME280;67372;49.404;11.034;2023-04-24T12:01:06;97358.97;;;13.19;47.51
75627;BME280;67372;49.404;11.034;2023-04-24T12:03:32;97358.03;;;13.08;48.68
75627;BME280;67372;49.404;11.034;2023-04-24T12:06:10;97364.47;;;13.34;48.45
75627;BME280;67372;49.404;11.034;2023-04-24T12:08:37;97361.97;;;13.55;47.47
75627;BME280;67372;49.404;11.034;2023-04-24T12:11:06;97368.84;;;13.77;47.25
75627;BME280;67372;49.404;11.034;2023-04-24T12:13:34;97359.31;;;13.97;47.15
75627;BME280;67372;49.404;11.034;2023-04-24T12:16:04;97357.53;;;14.12;46.65
75627;BME280;67372;49.404;11.034;2023-04-24T12:18:31;97369.97;;;14.34;46.79
75627;BME280;67372;49.404;11.034;2023-04-24T12:21:23;97371.19;;;14.53;45.94
75627;BME280;67372;49.404;11.034;2023-04-24T12:23:50;97370.13;;;14.59;45.74
75627;BME280;67372;49.404;11.034;2023-04-24T12:26:17;97374.53;;;14.33;47.27
75627;BME280;67372;49.404;11.034;2023-04-24T12:28:47;97377.69;;;14.20;46.72
75627;BME280;67372;49.404;11.034;2023-04-24T12:31:15;97379.31;;;14.21;46.45
75627;BME280;67372;49.404;11.034;2023-04-24T12:33:42;97386.44;;;14.05;47.07
75627;BME280;67372;49.404;11.034;2023-04-24T12:36:12;97376.75;;;13.99;47.39
75627;BME280;67372;49.404;11.034;2023-04-24T12:38:38;97380.84;;;14.12;47.54
75627;BME280;67372;49.404;11.034;2023-04-24T12:41:13;97385.94;;;14.08;46.16
75627;BME280;67372;49.404;11.034;2023-04-24T12:43:51;97382.81;;;14.22;45.45
75627;BME280;67372;49.404;11.034;2023-04-24T12:46:17;97387.81;;;14.50;45.59
75627;BME280;67372;49.404;11.034;2023-04-24T12:48:47;97403.47;;;14.73;44.45
75627;BME280;67372;49.404;11.034;2023-04-24T12:51:13;97402.66;;;14.73;44.09
75627;BME280;67372;49.404;11.034;2023-04-24T12:53:40;97382.88;;;14.42;45.82
75627;BME280;67372;49.404;11.034;2023-04-24T12:56:07;97398.03;;;14.58;45.43
75627;BME280;67372;49.404;11.034;2023-04-24T12:58:33;97385.69;;;14.62;45.64
75627;BME280;67372;49.404;11.034;2023-04-24T13:00:59;97388.75;;;14.86;45.14
75627;BME280;67372;49.404;11.034;2023-04-24T13:03:26;97384.97;;;14.87;45.52
75627;BME280;67372;49.404;11.034;2023-04-24T13:05:52;97399.53;;;15.01;44.31
75627;BME280;67372;49.404;11.034;2023-04-24T13:08:18;97383.44;;;15.12;43.76
75627;BME280;67372;49.404;11.034;2023-04-24T13:10:45;97383.69;;;15.00;44.71
75627;BME280;67372;49.404;11.034;2023-04-24T13:13:12;97386.13;;;15.07;45.46
75627;BME280;67372;49.404;11.034;2023-04-24T13:15:38;97385.84;;;15.13;44.90
75627;BME280;67372;49.404;11.034;2023-04-24T13:18:04;97387.75;;;15.13;45.29
75627;BME280;67372;49.404;11.034;2023-04-24T13:20:31;97379.94;;;14.96;45.69
75627;BME280;67372;49.404;11.034;2023-04-24T13:22:57;97383.06;;;14.72;45.81
75627;BME280;67372;49.404;11.034;2023-04-24T13:25:24;97382.69;;;14.43;45.95
75627;BME280;67372;49.404;11.034;2023-04-24T13:27:50;97387.22;;;14.01;47.51
75627;BME280;67372;49.404;11.034;2023-04-24T13:30:16;97384.69;;;13.84;48.16
75627;BME280;67372;49.404;11.034;2023-04-24T13:32:43;97404.63;;;13.61;49.01
75627;BME280;67372;49.404;11.034;2023-04-24T13:35:09;97407.16;;;13.73;48.23
75627;BME280;67372;49.404;11.034;2023-04-24T13:37:36;97399.41;;;13.81;48.09
75627;BME280;67372;49.404;11.034;2023-04-24T13:40:02;97414.69;;;13.81;48.42
75627;BME280;67372;49.404;11.034;2023-04-24T13:42:29;97398.78;;;13.69;48.83